Terminal Aerodrome Forecast
Issued by NWS Sterling, VA

Home | Current Version | Previous Version | Text Only | Print | Product List | Glossary On
Versions: 1 2 3 4 5 6 7 8 9 10 11 12 13 14 15 16 17 18 19 20 21 22 23 24 25
006
FTUS41 KLWX 080908 AAA
TAFIAD
TAF AMD
KIAD 080908Z 0809/0912 00000KT P6SM BKN030
     FM081500 29006KT P6SM BKN050
     FM081700 28012G20KT P6SM SCT200=

USA.gov is the U.S. government's official web portal to all federal, state and local government web resources and services.